SBGRSBYS

Guest
Details From SBGR - Sao Paulo - Guarulhos
To SBYS - Campo Fontenelle
Flight Number -
Tags Generated
Created
Modified
Stats Distance 98 nm / 182 km
Max Altitude 0 ft / 0 m
Waypoints 2
Social Downloads 1
Likes 0
Share VATSIM

Download

Looking for another format? Having issues loading an existing format? Contact us
Advertisement - Login to hide

Notes

Generated

Route

SBGR SBYS

ID Type Via Altitude Latitude Longitude Leg Dist Tot Dist Heading (true) Name
O SBGR APT - 0 ft / 0 m -23.43891˚ -46.48745˚ - 0 nm - -
O SBYS APT - 0 ft / 0 m -21.99321˚ -47.32680˚ 98 nm 98 nm 332° / 332° -

Altitude Profile

Advertisement - Login to hide

SBGR

Details ICAO SBGR (GRU)
Name Sao Paulo - Guarulhos
Region Brazil
Timezone America/Sao_Paulo (UTC-3.0)
Stats Elevation 2,459 ft / 750 m (AMSL)
Location -23.432333° -46.469675°
Runways 2
Magnetic Variation 21.467° W

METAR

SBGR 251700Z 12006KT 9999 BKN030 21/14 Q1023

Decode

TAF

TAF SBGR 251007Z 2512/2618 08005KT 9999 BKN013TX21/2517Z TN14/2609Z BECMG 2513/2515 SCT025 BECMG 2516/2518 15008KT BECMG 2520/2522 BKN013 BECMG 2523/2601 11005KT BECMG 2603/2605 08003KT PROB30 2608/2611 07010KT 4000 BR BKN007 BECMG 2612/2614 SCT025 BECMG 2614/2616 13005KT RMK PGF

Decode

Departure Runways

ID Width Length Bearing (true) Bearing (mag) Surface Threshold Offset Overrun Length
09L 148 ft / 45 m 12,676 ft / 3,864 m 73.61° 95.08° Asphalt 495 ft / 151 m 0 ft / 0 m
09R 148 ft / 45 m 9,950 ft / 3,033 m 73.60° 95.07° Asphalt 0 ft / 0 m 197 ft / 60 m
27L 148 ft / 45 m 9,950 ft / 3,033 m 253.59° 275.06° Asphalt 0 ft / 0 m 197 ft / 60 m
27R 148 ft / 45 m 12,676 ft / 3,864 m 253.60° 275.07° Asphalt 197 ft / 60 m 0 ft / 0 m

SBYS

Details ICAO SBYS (QPS)
Name CAMPO FONTENELLE
Region Brazil
Timezone America/Sao_Paulo (UTC-3.0)
Stats Elevation 1,968 ft / 600 m (AMSL)
Location -21.984564° -47.336901°
Runways 3
Magnetic Variation 21.328° W

METAR

SBYS 251700Z 17004KT 110V220 CAVOK 25/10 Q1022

Decode

TAF

TAF SBYS 251000Z 2512/2524 03004KT CAVOK TN13/2512Z TX27/2518Z PROB40 2514/2518 VRB05KT BECMG 2518/2519 18004KT RMK PEJ

Decode

Destination Runways

ID Width Length Bearing (true) Bearing (mag) Surface Threshold Offset Overrun Length
02C 148 ft / 45 m 6,949 ft / 2,118 m 359.84° 21.17° Asphalt 0 ft / 0 m 0 ft / 0 m
02L 148 ft / 45 m 6,949 ft / 2,118 m 359.86° 21.19° Asphalt 0 ft / 0 m 0 ft / 0 m
02R 148 ft / 45 m 6,259 ft / 1,908 m 359.65° 20.98° Asphalt 0 ft / 0 m 0 ft / 0 m
20C 148 ft / 45 m 6,949 ft / 2,118 m 179.84° 201.17° Asphalt 0 ft / 0 m 0 ft / 0 m
20L 148 ft / 45 m 6,259 ft / 1,908 m 179.65° 200.98° Asphalt 0 ft / 0 m 0 ft / 0 m
20R 148 ft / 45 m 6,949 ft / 2,118 m 179.86° 201.19° Asphalt 0 ft / 0 m 0 ft / 0 m

Approach Navaids

Runway Type Ident Frequency Range Bearing (true) Bearing (mag) Slope Elevation
02C Localiser IYS 109.30 MHz 18 nm / 33 km 359.54° 20.87° - 1,959 ft / 597 m (AMSL)
02C Glidescope IYS 109.30 MHz 10 nm / 19 km 359.84° 21.17° 3.00° 1,959 ft / 597 m (AMSL)